createdAt,value
2022-10-10T00:01:28.487Z,3.90
2022-10-10T00:03:55.728Z,4.55
2022-10-10T00:06:23.237Z,6.05
2022-10-10T00:08:51.301Z,5.68
2022-10-10T00:11:21.073Z,4.57
2022-10-10T00:13:48.930Z,4.20
2022-10-10T00:16:16.038Z,3.88
2022-10-10T00:18:43.436Z,7.97
2022-10-10T00:21:10.855Z,3.47
2022-10-10T00:23:38.295Z,3.20
2022-10-10T00:26:09.063Z,2.75
2022-10-10T00:28:38.913Z,3.38
2022-10-10T00:31:07.326Z,5.30
2022-10-10T00:33:34.368Z,4.90
2022-10-10T00:36:01.167Z,3.80
2022-10-10T00:38:28.067Z,3.90
2022-10-10T00:40:56.746Z,3.90
2022-10-10T00:43:25.873Z,4.88
2022-10-10T00:45:53.819Z,5.63
2022-10-10T00:48:30.229Z,6.00
2022-10-10T00:50:59.214Z,2.88
2022-10-10T00:53:29.735Z,4.68
2022-10-10T00:55:57.599Z,6.87
2022-10-10T00:58:24.654Z,5.93
2022-10-10T01:00:52.566Z,6.03
2022-10-10T01:03:19.468Z,4.90
2022-10-10T01:05:48.464Z,5.10
2022-10-10T01:08:16.642Z,6.88
2022-10-10T01:10:56.693Z,11.27
2022-10-10T01:13:46.423Z,2.40
2022-10-10T01:16:22.279Z,2.22
2022-10-10T01:19:14.299Z,7.07
2022-10-10T01:22:01.933Z,3.80
2022-10-10T01:24:40.819Z,4.22
2022-10-10T01:27:31.664Z,2.90
2022-10-10T01:30:06.697Z,4.32
2022-10-10T01:32:53.291Z,3.30
2022-10-10T01:35:29.112Z,2.55
2022-10-10T01:38:14.085Z,5.38
2022-10-10T01:41:24.656Z,3.05
2022-10-10T01:43:56.303Z,2.53
2022-10-10T01:46:24.317Z,2.78
2022-10-10T01:48:54.856Z,3.85
2022-10-10T01:51:48.721Z,4.67
2022-10-10T01:54:18.483Z,4.65
2022-10-10T01:57:27.057Z,6.03
2022-10-10T02:00:13.196Z,4.93
2022-10-10T02:02:49.475Z,4.00
2022-10-10T02:05:35.052Z,3.90
2022-10-10T02:08:19.699Z,6.80
2022-10-10T02:10:53.972Z,4.30
2022-10-10T02:13:25.484Z,4.85
2022-10-10T02:15:55.695Z,3.95
2022-10-10T02:18:27.914Z,4.22
2022-10-10T02:20:55.538Z,4.97
2022-10-10T02:23:22.728Z,7.85
2022-10-10T02:25:56.955Z,5.70
2022-10-10T02:28:36.110Z,3.58
2022-10-10T02:31:09.182Z,2.90
2022-10-10T02:33:48.441Z,2.72
2022-10-10T02:36:18.253Z,2.30
2022-10-10T02:38:46.230Z,2.40
2022-10-10T02:41:15.112Z,3.47
2022-10-10T02:43:42.522Z,3.03
2022-10-10T02:46:13.881Z,3.08
2022-10-10T02:48:41.073Z,4.20
2022-10-10T02:51:09.509Z,3.75
2022-10-10T02:53:37.835Z,3.72
2022-10-10T02:56:05.294Z,4.43
2022-10-10T02:58:32.183Z,3.67
2022-10-10T03:00:59.362Z,3.50
2022-10-10T03:03:26.474Z,5.25
2022-10-10T03:05:53.274Z,4.35
2022-10-10T03:08:20.477Z,5.72
2022-10-10T03:11:02.925Z,4.28
2022-10-10T03:13:29.874Z,4.53
2022-10-10T03:15:56.874Z,3.33
2022-10-10T03:18:24.070Z,3.33
2022-10-10T03:20:52.912Z,4.85
2022-10-10T03:23:20.061Z,2.17
2022-10-10T03:25:46.960Z,2.75
2022-10-10T03:28:14.547Z,2.67
2022-10-10T03:30:42.339Z,3.20
2022-10-10T03:33:10.193Z,4.13
2022-10-10T03:35:37.655Z,2.95
2022-10-10T03:38:05.409Z,2.30
2022-10-10T03:40:32.723Z,2.30
2022-10-10T03:43:00.131Z,2.30
2022-10-10T03:45:27.080Z,2.00
2022-10-10T03:47:53.917Z,2.35
2022-10-10T03:50:20.854Z,2.58
2022-10-10T03:52:47.881Z,2.75
2022-10-10T03:55:14.905Z,3.55
2022-10-10T03:57:41.746Z,2.08
2022-10-10T04:00:09.504Z,3.25
2022-10-10T04:02:36.402Z,2.60
2022-10-10T04:05:03.659Z,2.17
2022-10-10T04:07:31.006Z,2.70
2022-10-10T04:09:58.114Z,2.90
2022-10-10T04:12:25.213Z,2.78
2022-10-10T04:14:52.042Z,3.15
2022-10-10T04:17:18.990Z,3.17
2022-10-10T04:19:45.931Z,4.50
2022-10-10T04:22:12.790Z,3.55
2022-10-10T04:24:39.724Z,3.42
2022-10-10T04:27:06.511Z,4.00
2022-10-10T04:29:33.508Z,3.42
2022-10-10T04:32:00.413Z,4.35
2022-10-10T04:34:28.431Z,3.63
2022-10-10T04:36:55.378Z,3.30
2022-10-10T04:39:22.720Z,5.07
2022-10-10T04:41:50.155Z,3.13
2022-10-10T04:44:18.921Z,3.67
2022-10-10T04:46:46.480Z,3.28
2022-10-10T04:49:13.475Z,4.25
2022-10-10T04:51:40.420Z,3.45
2022-10-10T04:54:07.360Z,3.28
2022-10-10T04:56:34.262Z,4.75
2022-10-10T04:59:01.258Z,3.17
2022-10-10T05:01:28.220Z,3.38
2022-10-10T05:03:55.106Z,3.70
2022-10-10T05:06:22.059Z,3.28
2022-10-10T05:08:49.028Z,2.65
2022-10-10T05:11:15.881Z,5.57
2022-10-10T05:13:42.769Z,3.28
2022-10-10T05:16:09.715Z,3.53
2022-10-10T05:18:39.434Z,4.25
2022-10-10T05:21:07.703Z,3.03
2022-10-10T05:23:35.830Z,3.15
2022-10-10T05:26:02.718Z,2.58
2022-10-10T05:28:29.781Z,2.25
2022-10-10T05:30:56.756Z,2.38
2022-10-10T05:33:23.631Z,2.83
2022-10-10T05:35:50.576Z,2.80
2022-10-10T05:38:17.643Z,2.53
2022-10-10T05:40:44.769Z,2.97
2022-10-10T05:43:11.738Z,2.83
2022-10-10T05:45:38.588Z,3.35
2022-10-10T05:48:05.527Z,2.90
2022-10-10T05:50:39.605Z,4.35
2022-10-10T05:53:09.837Z,3.05
2022-10-10T05:55:36.863Z,2.50
2022-10-10T05:58:04.275Z,3.70
2022-10-10T06:00:31.363Z,6.25
2022-10-10T06:02:58.545Z,5.20
2022-10-10T06:05:25.519Z,3.33
2022-10-10T06:08:05.904Z,3.50
2022-10-10T06:10:41.266Z,2.38
2022-10-10T06:13:08.526Z,1.92
2022-10-10T06:15:35.973Z,2.80
2022-10-10T06:18:03.482Z,3.28
2022-10-10T06:20:30.627Z,1.60
2022-10-10T06:22:57.475Z,1.20
2022-10-10T06:25:39.404Z,1.52
2022-10-10T06:28:07.356Z,1.25
2022-10-10T06:30:35.231Z,2.03
2022-10-10T06:33:02.252Z,1.90
2022-10-10T06:35:29.198Z,2.40
2022-10-10T06:37:55.986Z,1.30
2022-10-10T06:40:22.881Z,1.67
2022-10-10T06:42:50.151Z,0.98
2022-10-10T06:45:17.174Z,1.63
2022-10-10T06:47:43.964Z,1.85
2022-10-10T06:50:11.524Z,2.92
2022-10-10T06:52:38.314Z,2.58
2022-10-10T06:55:05.473Z,4.72
2022-10-10T06:57:32.325Z,2.40
2022-10-10T06:59:59.156Z,2.70
2022-10-10T07:02:27.377Z,2.20
2022-10-10T07:04:54.272Z,3.42
2022-10-10T07:07:21.171Z,2.58
2022-10-10T07:09:48.108Z,2.40
2022-10-10T07:12:14.907Z,3.90
2022-10-10T07:14:41.897Z,3.05
2022-10-10T07:17:09.163Z,3.25
2022-10-10T07:19:37.900Z,2.30
2022-10-10T07:22:05.366Z,3.28
2022-10-10T07:24:32.234Z,4.38
2022-10-10T07:27:04.822Z,2.42
2022-10-10T07:29:34.848Z,2.10
2022-10-10T07:32:01.756Z,2.30
2022-10-10T07:34:28.564Z,2.65
2022-10-10T07:36:55.418Z,2.85
2022-10-10T07:39:24.002Z,3.85
2022-10-10T07:41:52.119Z,2.75
2022-10-10T07:44:19.934Z,3.20
2022-10-10T07:46:47.386Z,4.45
2022-10-10T07:49:14.382Z,2.95
2022-10-10T07:51:41.224Z,2.58
2022-10-10T07:54:09.704Z,5.15
2022-10-10T07:56:36.977Z,4.05
2022-10-10T07:59:04.005Z,2.47
2022-10-10T08:01:30.905Z,2.13
2022-10-10T08:03:57.902Z,2.53
2022-10-10T08:06:24.962Z,2.63
2022-10-10T08:08:52.500Z,2.50
2022-10-10T08:11:21.706Z,2.63
2022-10-10T08:13:49.271Z,2.10
2022-10-10T08:16:16.620Z,2.15
2022-10-10T08:18:43.560Z,1.48
2022-10-10T08:21:14.047Z,2.42
2022-10-10T08:23:41.441Z,2.27
2022-10-10T08:26:10.858Z,2.22
2022-10-10T08:28:38.924Z,2.45
2022-10-10T08:31:11.182Z,2.67
2022-10-10T08:33:39.059Z,1.73
2022-10-10T08:36:08.412Z,1.65
2022-10-10T08:38:36.125Z,2.42
2022-10-10T08:41:10.708Z,1.85
2022-10-10T08:43:52.535Z,2.20
2022-10-10T08:46:27.875Z,1.88
2022-10-10T08:48:58.360Z,1.55
2022-10-10T08:51:31.500Z,1.87
2022-10-10T08:54:04.119Z,2.08
2022-10-10T08:56:33.277Z,2.70
2022-10-10T08:59:14.192Z,2.10
2022-10-10T09:02:17.666Z,1.92
2022-10-10T09:04:30.660Z,2.17
2022-10-10T09:07:04.203Z,2.13
2022-10-10T09:09:38.789Z,1.70
2022-10-10T09:12:24.145Z,1.63
2022-10-10T09:15:03.006Z,2.05
2022-10-10T09:17:52.092Z,1.73
2022-10-10T09:20:40.972Z,2.25
2022-10-10T09:23:13.084Z,2.00
2022-10-10T09:25:49.141Z,2.25
2022-10-10T09:28:31.022Z,1.83
2022-10-10T09:31:01.651Z,1.55
2022-10-10T09:33:37.117Z,6.00
2022-10-10T09:36:10.713Z,2.05
2022-10-10T09:38:50.171Z,2.35
2022-10-10T09:41:17.142Z,2.42
2022-10-10T09:43:44.552Z,2.15
2022-10-10T09:46:11.753Z,4.40
2022-10-10T09:48:41.202Z,2.50
2022-10-10T09:51:14.598Z,1.90
2022-10-10T09:53:43.491Z,2.28
2022-10-10T09:56:20.381Z,2.05
2022-10-10T09:58:49.424Z,2.63
2022-10-10T10:01:25.217Z,2.60
2022-10-10T10:04:26.596Z,2.35
2022-10-10T10:07:17.785Z,2.65
2022-10-10T10:09:57.582Z,2.53
2022-10-10T10:12:28.928Z,2.28
2022-10-10T10:19:54.786Z,1.77
2022-10-10T10:22:32.055Z,2.88
2022-10-10T10:25:01.107Z,2.75
2022-10-10T10:27:29.180Z,2.08
2022-10-10T10:29:58.700Z,2.50
2022-10-10T10:32:44.174Z,3.42
2022-10-10T10:35:52.109Z,2.75
2022-10-10T10:38:25.007Z,2.15
2022-10-10T10:41:20.682Z,2.30
2022-10-10T10:44:13.578Z,2.53
2022-10-10T10:47:16.359Z,2.58
2022-10-10T10:49:57.909Z,2.53
2022-10-10T10:52:51.061Z,2.83
2022-10-10T10:55:26.951Z,2.30
2022-10-10T11:01:23.079Z,2.60
2022-10-10T11:05:25.201Z,4.00
2022-10-10T11:07:55.779Z,2.38
2022-10-10T11:10:37.407Z,3.15
2022-10-10T11:13:40.612Z,3.05
2022-10-10T11:16:47.360Z,2.78
2022-10-10T11:19:15.057Z,4.18
2022-10-10T11:21:49.780Z,2.15
2022-10-10T11:24:41.911Z,2.95
2022-10-10T11:27:20.376Z,3.08
2022-10-10T11:30:16.562Z,3.05
2022-10-10T11:33:00.243Z,2.63
2022-10-10T11:35:50.336Z,3.17
2022-10-10T11:38:20.297Z,3.10
2022-10-10T11:40:54.108Z,2.45
2022-10-10T11:43:31.389Z,2.85
2022-10-10T11:46:05.741Z,2.33
2022-10-10T11:49:00.359Z,3.25
2022-10-10T11:51:45.528Z,3.50
2022-10-10T11:54:35.064Z,2.60
2022-10-10T11:57:11.987Z,2.67
2022-10-10T11:59:56.195Z,2.35
2022-10-10T12:02:37.250Z,2.30
2022-10-10T12:05:08.446Z,2.20
2022-10-10T12:08:00.489Z,2.55
2022-10-10T12:10:39.315Z,2.70
2022-10-10T12:13:27.960Z,2.50
2022-10-10T12:15:58.029Z,2.15
2022-10-10T12:19:01.682Z,2.58
2022-10-10T12:21:30.613Z,2.40
2022-10-10T12:24:11.240Z,2.33
2022-10-10T12:26:53.216Z,2.10
2022-10-10T12:29:51.326Z,2.17
2022-10-10T12:32:18.307Z,2.30
2022-10-10T12:34:48.176Z,2.20
2022-10-10T12:37:26.698Z,2.00
2022-10-10T12:40:05.879Z,2.13
2022-10-10T12:42:34.571Z,2.22
2022-10-10T12:45:01.563Z,1.80
2022-10-10T12:47:59.945Z,1.50
2022-10-10T12:50:26.008Z,2.50
2022-10-10T12:52:57.674Z,1.67
2022-10-10T12:55:32.501Z,1.90
2022-10-10T12:58:03.539Z,1.60
2022-10-10T13:00:41.253Z,1.70
2022-10-10T13:03:35.112Z,1.50
2022-10-10T13:06:30.321Z,1.75
2022-10-10T13:08:58.385Z,1.70
2022-10-10T13:11:25.242Z,1.90
2022-10-10T13:13:57.305Z,1.60
2022-10-10T13:16:33.824Z,1.58
2022-10-10T13:19:01.285Z,1.70
2022-10-10T13:21:35.395Z,1.70
2022-10-10T13:24:05.114Z,1.90
2022-10-10T13:26:36.616Z,1.63
2022-10-10T13:29:27.043Z,1.75
2022-10-10T13:31:58.648Z,2.17
2022-10-10T13:34:30.351Z,2.30
2022-10-10T13:36:59.871Z,2.53
2022-10-10T13:39:28.752Z,2.03
2022-10-10T13:41:56.831Z,2.20
2022-10-10T13:44:30.527Z,2.17
2022-10-10T13:46:57.581Z,1.75
2022-10-10T13:49:25.906Z,2.92
2022-10-10T13:52:20.463Z,2.00
2022-10-10T13:54:48.954Z,1.70
2022-10-10T13:57:20.892Z,2.47
2022-10-10T13:59:58.227Z,1.92
2022-10-10T14:02:31.989Z,1.75
2022-10-10T14:05:03.893Z,1.85
2022-10-10T14:07:31.659Z,1.70
2022-10-10T14:10:10.618Z,2.13
2022-10-10T14:12:47.519Z,2.03
2022-10-10T14:15:36.067Z,2.05
2022-10-10T14:18:11.875Z,2.00
2022-10-10T14:20:39.118Z,2.42
2022-10-10T14:23:05.949Z,1.55
2022-10-10T14:25:32.955Z,1.85
2022-10-10T14:27:59.809Z,2.00
2022-10-10T14:30:26.690Z,1.45
2022-10-10T14:32:53.645Z,1.95
2022-10-10T14:35:20.534Z,2.17
2022-10-10T14:37:47.370Z,2.00
2022-10-10T14:40:23.840Z,2.05
2022-10-10T14:42:50.683Z,2.35
2022-10-10T14:45:18.519Z,2.38
2022-10-10T14:47:45.449Z,2.20
2022-10-10T14:50:19.517Z,2.25
2022-10-10T14:52:46.415Z,2.28
2022-10-10T14:55:13.963Z,1.75
2022-10-10T14:57:40.915Z,1.95
2022-10-10T15:00:14.052Z,2.03
2022-10-10T15:02:45.430Z,1.85
2022-10-10T15:05:13.320Z,2.05
2022-10-10T15:07:40.668Z,1.90
2022-10-10T15:12:56.265Z,2.08
2022-10-10T15:15:23.163Z,2.28
2022-10-10T15:17:50.119Z,2.00
2022-10-10T15:20:17.161Z,2.13
2022-10-10T15:22:45.545Z,2.72
2022-10-10T15:25:12.501Z,2.55
2022-10-10T15:27:39.322Z,2.63
2022-10-10T15:30:07.486Z,1.90
2022-10-10T15:32:37.965Z,3.63
2022-10-10T15:35:04.968Z,12.70
2022-10-10T15:37:31.916Z,7.05
2022-10-10T15:39:58.759Z,4.38
2022-10-10T15:42:25.760Z,5.38
2022-10-10T15:44:52.650Z,7.07
2022-10-10T15:47:20.316Z,5.82
2022-10-10T15:49:47.612Z,6.30
2022-10-10T15:52:14.655Z,7.22
2022-10-10T15:54:41.558Z,6.50
2022-10-10T15:57:08.497Z,5.97
2022-10-10T15:59:37.929Z,7.53
2022-10-10T16:02:08.466Z,6.80
2022-10-10T16:04:36.660Z,4.93
2022-10-10T16:07:24.575Z,5.18
2022-10-10T16:09:52.312Z,3.03
2022-10-10T16:12:19.383Z,2.35
2022-10-10T16:14:46.194Z,2.92
2022-10-10T16:17:13.097Z,2.13
2022-10-10T16:19:40.040Z,3.30
2022-10-10T16:22:07.042Z,3.28
2022-10-10T16:24:33.981Z,3.08
2022-10-10T16:27:02.315Z,1.80
2022-10-10T16:29:29.345Z,1.38
2022-10-10T16:31:56.194Z,1.63
2022-10-10T16:34:23.033Z,1.88
2022-10-10T16:36:49.935Z,1.98
2022-10-10T16:39:16.876Z,1.90
2022-10-10T16:41:48.106Z,1.50
2022-10-10T16:44:16.295Z,2.47
2022-10-10T16:46:43.270Z,1.50
2022-10-10T16:49:12.073Z,2.03
2022-10-10T16:51:39.027Z,2.40
2022-10-10T16:54:06.682Z,2.47
2022-10-10T16:56:34.253Z,2.30
2022-10-10T16:59:01.494Z,2.08
2022-10-10T17:01:29.362Z,1.75
2022-10-10T17:03:59.841Z,2.25
2022-10-10T17:06:34.862Z,2.67
2022-10-10T17:09:03.014Z,2.08
2022-10-10T17:11:30.049Z,2.15
2022-10-10T17:13:57.197Z,2.90
2022-10-10T17:19:13.561Z,2.35
2022-10-10T17:21:40.619Z,1.65
2022-10-10T17:24:07.626Z,2.45
2022-10-10T17:26:34.455Z,1.90
2022-10-10T17:29:01.397Z,1.85
2022-10-10T17:31:28.793Z,2.33
2022-10-10T17:33:57.606Z,2.00
2022-10-10T17:36:26.591Z,2.53
2022-10-10T17:38:56.218Z,1.75
2022-10-10T17:41:23.864Z,2.22
2022-10-10T17:43:50.797Z,2.67
2022-10-10T17:46:41.305Z,2.30
2022-10-10T17:49:11.354Z,2.58
2022-10-10T17:51:40.414Z,2.50
2022-10-10T17:54:08.024Z,2.83
2022-10-10T17:56:36.289Z,2.72
2022-10-10T17:59:06.765Z,2.97
2022-10-10T18:01:36.102Z,3.27
2022-10-10T18:04:03.339Z,2.83
2022-10-10T18:06:31.548Z,3.00
2022-10-10T18:08:58.904Z,3.15
2022-10-10T18:11:28.616Z,3.10
2022-10-10T18:14:00.814Z,3.03
2022-10-10T18:16:32.414Z,3.53
2022-10-10T18:21:26.838Z,3.05
2022-10-10T18:23:54.431Z,3.65
2022-10-10T18:26:24.100Z,3.20
2022-10-10T18:28:54.395Z,3.78
2022-10-10T18:31:33.494Z,6.20
2022-10-10T18:34:01.064Z,4.20
2022-10-10T18:36:31.136Z,4.18
2022-10-10T18:39:00.326Z,4.28
2022-10-10T18:41:34.573Z,3.00
2022-10-10T18:44:11.685Z,3.65
2022-10-10T18:46:39.401Z,3.10
2022-10-10T18:49:09.306Z,3.22
2022-10-10T18:51:37.536Z,2.50
2022-10-10T18:54:08.633Z,3.15
2022-10-10T18:56:38.338Z,2.80
2022-10-10T18:59:07.393Z,3.25
2022-10-10T19:01:36.877Z,2.92
2022-10-10T19:04:06.282Z,3.10
2022-10-10T19:06:34.050Z,2.83
2022-10-10T19:09:02.736Z,2.53
2022-10-10T19:11:32.751Z,2.78
2022-10-10T19:14:01.695Z,2.90
2022-10-10T19:16:29.152Z,3.42
2022-10-10T19:19:03.311Z,3.67
2022-10-10T19:21:33.649Z,3.80
2022-10-10T19:24:01.556Z,3.75
2022-10-10T19:26:33.651Z,3.65
2022-10-10T19:29:06.379Z,3.25
2022-10-10T19:31:34.064Z,4.20
2022-10-10T19:34:02.295Z,3.30
2022-10-10T19:36:29.398Z,4.15
2022-10-10T19:38:56.696Z,3.58
2022-10-10T19:41:23.687Z,4.20
2022-10-10T19:43:54.686Z,4.25
2022-10-10T19:46:23.367Z,4.40
2022-10-10T19:48:51.341Z,7.53
2022-10-10T19:51:20.380Z,5.40
2022-10-10T19:53:47.375Z,5.22
2022-10-10T19:56:24.923Z,3.88
2022-10-10T19:59:00.466Z,5.63
2022-10-10T20:01:30.295Z,4.45
2022-10-10T20:03:58.397Z,4.22
2022-10-10T20:06:25.716Z,4.03
2022-10-10T20:08:53.068Z,4.13
2022-10-10T20:11:20.821Z,3.65
2022-10-10T20:13:49.864Z,5.00
2022-10-10T20:16:17.635Z,3.80
2022-10-10T20:18:44.588Z,3.83
2022-10-10T20:21:20.804Z,4.07
2022-10-10T20:23:48.564Z,3.95
2022-10-10T20:26:21.124Z,3.78
2022-10-10T20:28:49.911Z,3.60
2022-10-10T20:31:17.328Z,3.60
2022-10-10T20:33:44.628Z,3.38
2022-10-10T20:36:12.236Z,4.63
2022-10-10T20:38:39.588Z,3.95
2022-10-10T20:41:07.363Z,3.60
2022-10-10T20:43:36.244Z,4.30
2022-10-10T20:46:11.225Z,4.18
2022-10-10T20:48:39.104Z,3.35
2022-10-10T20:51:11.517Z,4.25
2022-10-10T20:53:42.412Z,3.75
2022-10-10T20:56:11.559Z,4.28
2022-10-10T20:58:39.727Z,4.53
2022-10-10T21:01:15.052Z,4.95
2022-10-10T21:03:43.190Z,4.70
2022-10-10T21:06:15.265Z,3.88
2022-10-10T21:08:42.917Z,3.92
2022-10-10T21:11:12.476Z,2.97
2022-10-10T21:13:41.989Z,3.60
2022-10-10T21:16:14.392Z,3.60
2022-10-10T21:18:57.036Z,3.63
2022-10-10T21:21:31.030Z,3.50
2022-10-10T21:23:58.277Z,4.03
2022-10-10T21:26:27.270Z,4.65
2022-10-10T21:28:55.900Z,4.53
2022-10-10T21:31:37.762Z,3.05
2022-10-10T21:34:06.904Z,3.70
2022-10-10T21:36:35.029Z,3.75
2022-10-10T21:39:02.030Z,3.08
2022-10-10T21:41:29.256Z,3.83
2022-10-10T21:43:58.473Z,3.20
2022-10-10T21:46:37.177Z,3.72
2022-10-10T21:49:11.041Z,3.85
2022-10-10T21:51:45.746Z,3.08
2022-10-10T21:54:13.124Z,3.50
2022-10-10T21:56:40.735Z,3.67
2022-10-10T21:59:07.995Z,4.10
2022-10-10T22:01:37.573Z,4.53
2022-10-10T22:04:05.318Z,3.60
2022-10-10T22:06:32.471Z,3.35
2022-10-10T22:09:01.013Z,4.05
2022-10-10T22:11:29.676Z,4.03
2022-10-10T22:13:56.581Z,3.10
2022-10-10T22:16:23.621Z,4.03
2022-10-10T22:18:54.972Z,3.47
2022-10-10T22:23:58.789Z,2.97
2022-10-10T22:26:25.678Z,3.67
2022-10-10T22:28:52.532Z,3.40
2022-10-10T22:31:19.778Z,5.32
2022-10-10T22:33:46.680Z,3.90
2022-10-10T22:36:14.029Z,4.60
2022-10-10T22:38:43.127Z,5.28
2022-10-10T22:41:10.992Z,5.72
2022-10-10T22:43:38.051Z,6.45
2022-10-10T22:46:06.113Z,8.43
2022-10-10T22:48:33.561Z,6.65
2022-10-10T22:51:03.167Z,7.15
2022-10-10T22:53:30.317Z,6.90
2022-10-10T22:55:57.480Z,6.43
2022-10-10T22:58:24.578Z,7.10
2022-10-10T23:00:51.737Z,6.40
2022-10-10T23:03:19.035Z,6.75
2022-10-10T23:05:46.992Z,6.38
2022-10-10T23:08:14.597Z,5.80
2022-10-10T23:10:41.709Z,4.82
2022-10-10T23:13:08.545Z,5.70
2022-10-10T23:15:35.642Z,5.50
2022-10-10T23:18:02.489Z,5.35
2022-10-10T23:20:29.329Z,5.55
2022-10-10T23:22:56.893Z,4.10
2022-10-10T23:25:24.436Z,4.55
2022-10-10T23:27:51.797Z,2.97
2022-10-10T23:30:19.460Z,2.92
2022-10-10T23:32:47.222Z,2.78
2022-10-10T23:35:14.223Z,2.90
2022-10-10T23:37:41.681Z,2.83
2022-10-10T23:40:09.201Z,3.20
2022-10-10T23:42:36.143Z,3.08
2022-10-10T23:45:03.301Z,3.05
2022-10-10T23:47:30.275Z,3.03
2022-10-10T23:49:57.171Z,3.35
2022-10-10T23:52:23.976Z,2.90
2022-10-10T23:54:50.851Z,3.55
2022-10-10T23:57:17.801Z,2.85
2022-10-10T23:59:44.591Z,2.72
